createdAt,value
2022-08-02T00:00:25.456Z,86.73
2022-08-02T00:01:24.491Z,86.83
2022-08-02T00:02:24.422Z,87.04
2022-08-02T00:03:24.812Z,87.34
2022-08-02T00:04:24.432Z,87.38
2022-08-02T00:05:24.412Z,87.79
2022-08-02T00:06:24.366Z,87.88
2022-08-02T00:07:24.355Z,88.19
2022-08-02T00:08:24.390Z,88.29
2022-08-02T00:09:24.346Z,88.39
2022-08-02T00:10:25.078Z,88.39
2022-08-02T00:11:24.327Z,88.49
2022-08-02T00:12:24.320Z,88.59
2022-08-02T00:13:24.294Z,88.84
2022-08-02T00:14:24.276Z,88.94
2022-08-02T00:15:24.303Z,88.94
2022-08-02T00:16:38.314Z,89.04
2022-08-02T00:17:25.248Z,88.94
2022-08-02T00:18:24.240Z,89.24
2022-08-02T00:19:24.227Z,89.34
2022-08-02T00:20:24.219Z,89.45
2022-08-02T00:21:24.228Z,89.45
2022-08-02T00:22:24.250Z,89.54
2022-08-02T00:23:24.183Z,89.65
2022-08-02T00:24:29.163Z,89.65
2022-08-02T00:25:24.170Z,89.75
2022-08-02T00:26:24.174Z,89.85
2022-08-02T00:27:24.171Z,89.95
2022-08-02T00:28:27.311Z,90.05
2022-08-02T00:29:24.118Z,90.05
2022-08-02T00:30:24.132Z,90.25
2022-08-02T00:31:24.149Z,90.36
2022-08-02T00:32:24.083Z,90.50
2022-08-02T00:34:05.593Z,90.70
2022-08-02T00:34:29.961Z,90.80
2022-08-02T00:35:25.049Z,90.91
2022-08-02T00:36:24.078Z,90.91
2022-08-02T00:37:24.031Z,91.11
2022-08-02T00:38:24.022Z,91.16
2022-08-02T00:39:34.677Z,91.16
2022-08-02T00:40:25.046Z,91.27
2022-08-02T00:41:24.006Z,91.16
2022-08-02T00:42:23.977Z,91.31
2022-08-02T00:43:23.961Z,91.41
2022-08-02T00:44:23.965Z,91.51
2022-08-02T00:46:02.103Z,91.71
2022-08-02T00:46:24.952Z,91.71
2022-08-02T00:47:23.920Z,91.61
2022-08-02T00:48:23.970Z,91.71
2022-08-02T00:49:23.941Z,91.82
2022-08-02T00:50:23.939Z,91.92
2022-08-02T00:51:23.868Z,91.92
2022-08-02T00:52:23.897Z,91.92
2022-08-02T00:53:23.854Z,91.92
2022-08-02T00:54:23.871Z,92.02
2022-08-02T00:55:30.901Z,92.12
2022-08-02T00:56:24.827Z,92.22
2022-08-02T00:57:23.813Z,92.32
2022-08-02T00:58:23.818Z,92.32
2022-08-02T00:59:23.820Z,92.22
2022-08-02T01:00:23.789Z,92.12
2022-08-02T01:01:24.832Z,91.92
2022-08-02T01:02:23.780Z,91.92
2022-08-02T01:03:23.748Z,91.92
2022-08-02T01:04:30.016Z,91.92
2022-08-02T01:05:24.741Z,92.02
2022-08-02T01:06:23.716Z,92.12
2022-08-02T01:07:23.692Z,92.12
2022-08-02T01:08:29.506Z,92.22
2022-08-02T01:09:24.682Z,92.32
2022-08-02T01:10:23.711Z,92.42
2022-08-02T01:11:23.665Z,92.42
2022-08-02T01:12:23.647Z,92.52
2022-08-02T01:13:23.893Z,92.63
2022-08-02T01:14:23.624Z,92.72
2022-08-02T01:15:23.606Z,92.83
2022-08-02T01:16:24.625Z,92.93
2022-08-02T01:17:23.594Z,92.93
2022-08-02T01:18:23.573Z,92.83
2022-08-02T01:19:23.594Z,92.72
2022-08-02T01:20:23.560Z,92.63
2022-08-02T01:21:23.545Z,92.72
2022-08-02T01:22:34.664Z,92.83
2022-08-02T01:23:24.548Z,92.83
2022-08-02T01:24:23.525Z,92.72
2022-08-02T01:25:23.506Z,92.83
2022-08-02T01:26:23.495Z,92.93
2022-08-02T01:27:23.494Z,92.93
2022-08-02T01:28:23.494Z,93.03
2022-08-02T01:29:23.469Z,93.13
2022-08-02T01:30:23.447Z,93.33
2022-08-02T01:31:23.482Z,93.68
2022-08-02T01:32:23.432Z,93.78
2022-08-02T01:33:23.409Z,93.88
2022-08-02T01:34:23.421Z,93.99
2022-08-02T01:35:24.350Z,94.09
2022-08-02T01:36:23.381Z,94.09
2022-08-02T01:37:23.360Z,94.04
2022-08-02T01:38:23.370Z,94.04
2022-08-02T01:39:26.888Z,93.84
2022-08-02T01:40:24.343Z,93.74
2022-08-02T01:41:23.322Z,93.74
2022-08-02T01:42:23.315Z,93.54
2022-08-02T01:43:23.323Z,93.43
2022-08-02T01:44:27.527Z,93.54
2022-08-02T01:45:23.315Z,93.54
2022-08-02T01:46:23.274Z,93.54
2022-08-02T01:47:23.287Z,93.63
2022-08-02T01:48:23.253Z,93.63
2022-08-02T01:49:23.306Z,93.54
2022-08-02T01:50:23.228Z,93.54
2022-08-02T01:51:23.214Z,93.63
2022-08-02T01:52:23.198Z,93.78
2022-08-02T01:53:23.355Z,93.78
2022-08-02T01:54:23.187Z,93.99
2022-08-02T01:55:23.195Z,94.09
2022-08-02T01:56:24.154Z,94.19
2022-08-02T01:57:23.148Z,94.29
2022-08-02T01:58:23.127Z,94.29
2022-08-02T01:59:23.116Z,94.14
2022-08-02T02:00:23.199Z,94.09
2022-08-02T02:01:23.200Z,93.99
2022-08-02T02:02:23.086Z,94.09
2022-08-02T02:03:23.078Z,94.09
2022-08-02T02:04:23.067Z,94.19
2022-08-02T02:05:23.061Z,94.29
2022-08-02T02:06:23.053Z,94.29
2022-08-02T02:07:23.110Z,94.39
2022-08-02T02:08:27.051Z,94.29
2022-08-02T02:09:23.025Z,94.29
2022-08-02T02:10:23.005Z,94.29
2022-08-02T02:12:11.470Z,94.19
2022-08-02T02:12:24.003Z,94.19
2022-08-02T02:13:33.203Z,94.09
2022-08-02T02:14:23.970Z,93.99
2022-08-02T02:15:22.940Z,94.09
2022-08-02T02:16:22.950Z,94.23
2022-08-02T02:18:10.879Z,94.43
2022-08-02T02:18:23.930Z,94.54
2022-08-02T02:19:22.962Z,94.84
2022-08-02T02:20:22.902Z,94.94
2022-08-02T02:21:22.931Z,95.14
2022-08-02T02:22:22.874Z,95.25
2022-08-02T02:23:25.845Z,95.35
2022-08-02T02:24:22.854Z,95.25
2022-08-02T02:25:27.550Z,95.14
2022-08-02T02:26:31.532Z,95.14
2022-08-02T02:27:23.804Z,95.04
2022-08-02T02:28:22.807Z,94.84
2022-08-02T02:29:22.795Z,94.84
2022-08-02T02:30:22.790Z,94.74
2022-08-02T02:31:22.789Z,94.78
2022-08-02T02:32:22.785Z,94.98
2022-08-02T02:33:26.426Z,95.09
2022-08-02T02:34:23.761Z,95.19
2022-08-02T02:35:22.727Z,95.19
2022-08-02T02:36:22.748Z,95.29
2022-08-02T02:37:23.673Z,95.29
2022-08-02T02:38:22.693Z,95.39
2022-08-02T02:39:22.679Z,95.39
2022-08-02T02:40:22.668Z,95.29
2022-08-02T02:41:22.658Z,95.19
2022-08-02T02:42:22.670Z,95.19
2022-08-02T02:43:22.651Z,95.29
2022-08-02T02:44:22.638Z,95.39
2022-08-02T02:45:22.642Z,95.39
2022-08-02T02:46:22.601Z,95.39
2022-08-02T02:47:22.588Z,95.19
2022-08-02T02:48:23.571Z,95.09
2022-08-02T02:49:22.603Z,95.09
2022-08-02T02:50:22.591Z,94.89
2022-08-02T02:51:22.549Z,94.78
2022-08-02T02:52:22.547Z,94.78
2022-08-02T02:53:22.527Z,94.78
2022-08-02T02:54:30.938Z,94.89
2022-08-02T02:55:23.524Z,94.89
2022-08-02T02:56:22.495Z,94.89
2022-08-02T02:57:22.493Z,94.98
2022-08-02T02:58:22.484Z,94.98
2022-08-02T02:59:23.483Z,95.09
2022-08-02T03:00:22.456Z,95.13
2022-08-02T03:01:55.401Z,95.13
2022-08-02T03:02:23.426Z,95.13
2022-08-02T03:03:22.445Z,95.23
2022-08-02T03:04:22.407Z,95.23
2022-08-02T03:05:22.446Z,95.23
2022-08-02T03:06:22.402Z,95.34
2022-08-02T03:07:22.367Z,95.34
2022-08-02T03:08:22.356Z,95.43
2022-08-02T03:09:22.362Z,95.54
2022-08-02T03:10:22.379Z,95.64
2022-08-02T03:11:22.337Z,95.74
2022-08-02T03:12:24.055Z,95.74
2022-08-02T03:13:22.363Z,95.64
2022-08-02T03:14:22.328Z,95.54
2022-08-02T03:15:22.297Z,95.54
2022-08-02T03:16:22.295Z,95.58
2022-08-02T03:17:22.266Z,95.58
2022-08-02T03:18:22.251Z,95.58
2022-08-02T03:19:22.259Z,95.58
2022-08-02T03:20:22.308Z,95.58
2022-08-02T03:21:22.288Z,95.68
2022-08-02T03:22:22.198Z,95.68
2022-08-02T03:23:22.227Z,95.68
2022-08-02T03:24:27.680Z,95.68
2022-08-02T03:25:23.193Z,95.68
2022-08-02T03:26:22.155Z,95.68
2022-08-02T03:27:22.143Z,95.68
2022-08-02T03:28:22.133Z,95.58
2022-08-02T03:29:22.273Z,95.58
2022-08-02T03:30:22.122Z,95.48
2022-08-02T03:31:22.125Z,95.58
2022-08-02T03:32:22.096Z,95.58
2022-08-02T03:33:22.093Z,95.68
2022-08-02T03:34:22.081Z,95.68
2022-08-02T03:35:24.180Z,95.79
2022-08-02T03:36:22.043Z,95.79
2022-08-02T03:37:22.070Z,95.89
2022-08-02T03:38:22.026Z,95.79
2022-08-02T03:39:22.007Z,95.79
2022-08-02T03:40:22.000Z,95.79
2022-08-02T03:41:22.985Z,95.79
2022-08-02T03:42:22.013Z,95.68
2022-08-02T03:43:21.965Z,95.48
2022-08-02T03:44:21.976Z,95.28
2022-08-02T03:45:21.954Z,95.28
2022-08-02T03:46:21.978Z,95.48
2022-08-02T03:47:21.930Z,95.58
2022-08-02T03:48:34.896Z,95.68
2022-08-02T03:49:22.962Z,95.68
2022-08-02T03:50:21.885Z,95.68
2022-08-02T03:51:21.878Z,95.68
2022-08-02T03:52:21.865Z,95.68
2022-08-02T03:53:21.886Z,95.68
2022-08-02T03:54:21.841Z,95.68
2022-08-02T03:55:21.865Z,95.68
2022-08-02T03:56:23.545Z,95.68
2022-08-02T03:57:21.833Z,95.79
2022-08-02T03:58:21.799Z,95.79
2022-08-02T03:59:21.813Z,95.79
2022-08-02T04:00:21.812Z,95.89
2022-08-02T04:01:21.789Z,95.89
2022-08-02T04:02:21.815Z,95.89
2022-08-02T04:03:21.742Z,95.79
2022-08-02T04:04:21.728Z,95.68
2022-08-02T04:05:21.777Z,95.58
2022-08-02T04:06:27.153Z,95.58
2022-08-02T04:08:34.574Z,95.68
2022-08-02T04:08:35.856Z,95.68
2022-08-02T04:09:23.681Z,95.58
2022-08-02T04:10:21.690Z,95.58
2022-08-02T04:11:21.653Z,95.58
2022-08-02T04:12:21.646Z,95.68
2022-08-02T04:13:21.637Z,95.68
2022-08-02T04:14:21.678Z,95.79
2022-08-02T04:15:21.604Z,95.79
2022-08-02T04:16:21.606Z,95.89
2022-08-02T04:17:21.582Z,95.94
2022-08-02T04:18:21.568Z,96.03
2022-08-02T04:19:21.602Z,96.03
2022-08-02T04:20:21.582Z,96.03
2022-08-02T04:21:21.559Z,96.14
2022-08-02T04:22:21.549Z,96.14
2022-08-02T04:23:21.540Z,96.03
2022-08-02T04:24:24.527Z,96.03
2022-08-02T04:25:21.513Z,96.14
2022-08-02T04:26:26.921Z,96.14
2022-08-02T04:28:15.692Z,96.23
2022-08-02T04:28:27.629Z,96.34
2022-08-02T04:29:22.519Z,96.34
2022-08-02T04:30:21.455Z,96.44
2022-08-02T04:31:22.420Z,96.44
2022-08-02T04:32:21.468Z,96.54
2022-08-02T04:33:21.434Z,96.54
2022-08-02T04:34:21.413Z,96.54
2022-08-02T04:35:21.394Z,96.50
2022-08-02T04:36:30.692Z,96.60
2022-08-02T04:37:22.394Z,96.60
2022-08-02T04:38:21.349Z,96.50
2022-08-02T04:39:21.386Z,96.39
2022-08-02T04:40:21.333Z,96.30
2022-08-02T04:41:21.324Z,96.19
2022-08-02T04:42:21.330Z,96.09
2022-08-02T04:43:21.296Z,95.89
2022-08-02T04:44:22.227Z,95.89
2022-08-02T04:45:21.287Z,95.89
2022-08-02T04:46:21.275Z,95.84
2022-08-02T04:47:54.039Z,95.94
2022-08-02T04:48:22.237Z,95.84
2022-08-02T04:49:21.328Z,95.94
2022-08-02T04:50:21.226Z,95.94
2022-08-02T04:51:21.219Z,96.04
2022-08-02T04:52:22.194Z,96.04
2022-08-02T04:53:21.189Z,96.04
2022-08-02T04:54:21.197Z,96.04
2022-08-02T04:55:21.190Z,96.15
2022-08-02T04:56:21.147Z,96.15
2022-08-02T04:57:21.140Z,96.15
2022-08-02T04:58:39.937Z,96.15
2022-08-02T04:59:22.143Z,96.15
2022-08-02T05:00:21.135Z,96.25
2022-08-02T05:01:21.116Z,96.15
2022-08-02T05:02:21.075Z,96.15
2022-08-02T05:03:21.069Z,96.04
2022-08-02T05:04:21.081Z,95.94
2022-08-02T05:05:21.081Z,95.79
2022-08-02T05:06:21.055Z,95.79
2022-08-02T05:07:21.060Z,95.79
2022-08-02T05:08:21.049Z,95.90
2022-08-02T05:09:21.002Z,95.90
2022-08-02T05:10:21.004Z,95.90
2022-08-02T05:11:20.985Z,95.75
2022-08-02T05:12:20.989Z,95.55
2022-08-02T05:13:20.958Z,95.55
2022-08-02T05:14:20.964Z,95.45
2022-08-02T05:15:20.943Z,95.45
2022-08-02T05:16:20.926Z,95.45
2022-08-02T05:17:21.924Z,95.30
2022-08-02T05:18:20.930Z,95.30
2022-08-02T05:19:20.946Z,95.20
2022-08-02T05:20:20.888Z,95.10
2022-08-02T05:21:20.905Z,95.10
2022-08-02T05:22:20.871Z,95.00
2022-08-02T05:23:20.849Z,94.85
2022-08-02T05:24:20.848Z,94.85
2022-08-02T05:25:20.879Z,94.75
2022-08-02T05:26:20.849Z,94.65
2022-08-02T05:27:21.482Z,94.55
2022-08-02T05:28:20.796Z,94.45
2022-08-02T05:29:20.790Z,94.20
2022-08-02T05:30:20.799Z,94.00
2022-08-02T05:31:20.769Z,93.90
2022-08-02T05:32:20.758Z,93.79
2022-08-02T05:33:20.751Z,93.79
2022-08-02T05:34:20.802Z,93.79
2022-08-02T05:35:20.719Z,93.70
2022-08-02T05:36:21.599Z,93.79
2022-08-02T05:37:20.702Z,93.75
2022-08-02T05:38:24.487Z,93.75
2022-08-02T05:39:21.714Z,93.75
2022-08-02T05:40:25.377Z,93.85
2022-08-02T05:41:21.666Z,93.85
2022-08-02T05:42:20.645Z,93.85
2022-08-02T05:43:20.993Z,93.81
2022-08-02T05:44:20.623Z,93.71
2022-08-02T05:45:20.675Z,93.60
2022-08-02T05:46:20.598Z,93.51
2022-08-02T05:47:20.615Z,93.51
2022-08-02T05:48:20.596Z,93.40
2022-08-02T05:49:20.620Z,93.26
2022-08-02T05:50:20.577Z,93.16
2022-08-02T05:51:20.584Z,93.05
2022-08-02T05:52:20.525Z,93.05
2022-08-02T05:53:20.525Z,92.96
2022-08-02T05:54:20.496Z,92.76
2022-08-02T05:55:20.504Z,92.50
2022-08-02T05:56:20.507Z,92.41
2022-08-02T05:57:20.487Z,92.41
2022-08-02T05:58:20.470Z,92.30
2022-08-02T05:59:20.527Z,92.10
2022-08-02T06:00:20.440Z,92.10
2022-08-02T06:01:20.503Z,91.86
2022-08-02T06:02:20.719Z,91.55
2022-08-02T06:03:20.408Z,91.46
2022-08-02T06:04:20.401Z,91.46
2022-08-02T06:05:20.402Z,91.25
2022-08-02T06:06:20.393Z,91.05
2022-08-02T06:07:20.421Z,90.91
2022-08-02T06:08:20.372Z,90.81
2022-08-02T06:09:26.977Z,90.70
2022-08-02T06:10:21.334Z,90.61
2022-08-02T06:11:20.355Z,90.20
2022-08-02T06:12:20.313Z,89.95
2022-08-02T06:13:20.321Z,89.86
2022-08-02T06:14:20.296Z,89.75
2022-08-02T06:15:20.273Z,89.65
2022-08-02T06:16:32.345Z,89.55
2022-08-02T06:17:21.285Z,89.55
2022-08-02T06:18:28.027Z,89.31
2022-08-02T06:19:21.244Z,89.21
2022-08-02T06:20:20.214Z,89.11
2022-08-02T06:22:32.820Z,88.70
2022-08-02T06:22:34.022Z,88.46
2022-08-02T06:23:23.639Z,88.16
2022-08-02T06:24:20.195Z,88.06
2022-08-02T06:25:49.695Z,88.06
2022-08-02T06:26:21.166Z,88.06
2022-08-02T06:27:20.243Z,87.96
2022-08-02T06:28:20.142Z,87.82
2022-08-02T06:29:20.121Z,87.71
2022-08-02T06:30:20.111Z,87.62
2022-08-02T06:31:20.099Z,87.62
2022-08-02T06:32:20.078Z,87.47
2022-08-02T06:33:20.100Z,87.17
2022-08-02T06:34:20.066Z,87.07
2022-08-02T06:35:20.058Z,86.97
2022-08-02T06:36:20.064Z,86.87
2022-08-02T06:37:20.030Z,86.72
2022-08-02T06:38:20.083Z,86.32
2022-08-02T06:39:20.015Z,86.02
2022-08-02T06:40:20.013Z,85.72
2022-08-02T06:41:19.980Z,85.31
2022-08-02T06:42:27.038Z,85.38
2022-08-02T06:43:20.992Z,85.17
2022-08-02T06:44:46.000Z,84.77
2022-08-02T06:45:20.947Z,84.37
2022-08-02T06:47:09.129Z,84.37
2022-08-02T06:47:20.916Z,84.17
2022-08-02T06:48:19.908Z,83.93
2022-08-02T06:49:19.965Z,83.83
2022-08-02T06:50:19.904Z,83.63
2022-08-02T06:51:19.867Z,83.23
2022-08-02T06:52:22.302Z,83.33
2022-08-02T06:53:20.859Z,83.43
2022-08-02T06:54:40.839Z,83.53
2022-08-02T06:55:19.865Z,83.43
2022-08-02T06:56:19.815Z,83.29
2022-08-02T06:57:19.806Z,82.98
2022-08-02T06:58:19.836Z,82.48
2022-08-02T06:59:19.870Z,82.28
2022-08-02T07:00:19.786Z,82.08
2022-08-02T07:01:19.977Z,82.08
2022-08-02T07:02:20.744Z,81.68
2022-08-02T07:03:19.762Z,81.64
2022-08-02T07:04:20.347Z,81.54
2022-08-02T07:05:19.709Z,81.74
2022-08-02T07:06:19.708Z,81.54
2022-08-02T07:07:19.740Z,81.14
2022-08-02T07:08:19.736Z,81.10
2022-08-02T07:09:21.354Z,81.10
2022-08-02T07:10:19.681Z,80.90
2022-08-02T07:11:19.661Z,80.60
2022-08-02T07:12:19.644Z,80.30
2022-08-02T07:13:19.643Z,80.30
2022-08-02T07:14:19.643Z,80.06
2022-08-02T07:15:19.645Z,79.75
2022-08-02T07:16:19.603Z,79.36
2022-08-02T07:17:19.596Z,78.96
2022-08-02T07:18:19.601Z,78.96
2022-08-02T07:19:19.573Z,78.75
2022-08-02T07:20:19.582Z,78.22
2022-08-02T07:21:19.611Z,78.22
2022-08-02T07:22:20.539Z,77.91
2022-08-02T07:23:19.545Z,77.61
2022-08-02T07:24:19.516Z,77.61
2022-08-02T07:25:19.533Z,77.48
2022-08-02T07:26:19.487Z,77.58
2022-08-02T07:27:19.486Z,77.37
2022-08-02T07:28:24.361Z,76.78
2022-08-02T07:29:20.485Z,76.17
2022-08-02T07:30:19.490Z,76.07
2022-08-02T07:31:19.425Z,76.07
2022-08-02T07:32:19.441Z,76.07
2022-08-02T07:33:38.458Z,76.24
2022-08-02T07:34:20.398Z,76.14
2022-08-02T07:35:19.948Z,75.93
2022-08-02T07:36:22.815Z,75.43
2022-08-02T07:37:35.711Z,75.63
2022-08-02T07:38:20.378Z,75.23
2022-08-02T07:39:19.345Z,75.34
2022-08-02T07:40:19.960Z,75.34
2022-08-02T07:41:19.348Z,74.70
2022-08-02T07:42:19.320Z,74.40
2022-08-02T07:43:19.310Z,74.60
2022-08-02T07:44:19.323Z,74.30
2022-08-02T07:45:19.321Z,73.90
2022-08-02T07:46:19.285Z,73.90
2022-08-02T07:47:19.254Z,73.96
2022-08-02T07:48:19.337Z,73.76
2022-08-02T07:49:19.266Z,73.46
2022-08-02T07:50:19.233Z,73.16
2022-08-02T07:51:19.225Z,73.16
2022-08-02T07:52:19.282Z,73.36
2022-08-02T07:53:19.231Z,72.92
2022-08-02T07:54:19.187Z,72.83
2022-08-02T07:55:19.167Z,72.72
2022-08-02T07:56:19.195Z,72.63
2022-08-02T07:57:19.146Z,72.72
2022-08-02T07:58:19.137Z,72.63
2022-08-02T07:59:19.118Z,71.79
2022-08-02T08:00:19.118Z,71.59
2022-08-02T08:01:19.268Z,71.29
2022-08-02T08:02:19.137Z,71.59
2022-08-02T08:03:19.102Z,71.59
2022-08-02T08:04:19.079Z,71.59
2022-08-02T08:05:19.060Z,71.66
2022-08-02T08:06:19.081Z,71.46
2022-08-02T08:07:20.060Z,71.16
2022-08-02T08:08:19.085Z,70.96
2022-08-02T08:09:19.021Z,70.86
2022-08-02T08:10:19.019Z,70.62
2022-08-02T08:11:18.997Z,70.83
2022-08-02T08:12:19.247Z,71.03
2022-08-02T08:13:18.973Z,71.03
2022-08-02T08:14:19.001Z,70.72
2022-08-02T08:15:18.957Z,70.72
2022-08-02T08:16:18.944Z,70.49
2022-08-02T08:17:18.976Z,70.09
2022-08-02T08:18:18.982Z,69.79
2022-08-02T08:19:18.934Z,69.20
2022-08-02T08:20:18.931Z,69.09
2022-08-02T08:21:18.887Z,68.70
2022-08-02T08:22:18.878Z,68.46
2022-08-02T08:23:18.868Z,68.56
2022-08-02T08:24:18.870Z,68.76
2022-08-02T08:25:18.881Z,69.06
2022-08-02T08:26:18.839Z,69.26
2022-08-02T08:27:18.815Z,69.06
2022-08-02T08:28:18.850Z,69.13
2022-08-02T08:29:18.997Z,69.13
2022-08-02T08:30:18.805Z,68.13
2022-08-02T08:31:18.812Z,67.73
2022-08-02T08:32:19.145Z,67.63
2022-08-02T08:33:18.781Z,67.10
2022-08-02T08:34:18.774Z,66.90
2022-08-02T08:35:18.750Z,66.80
2022-08-02T08:36:18.770Z,66.90
2022-08-02T08:37:18.918Z,67.00
2022-08-02T08:38:18.733Z,66.50
2022-08-02T08:39:18.690Z,66.40
2022-08-02T08:40:19.363Z,66.60
2022-08-02T08:41:18.682Z,66.80
2022-08-02T08:42:19.355Z,67.00
2022-08-02T08:43:18.643Z,67.60
2022-08-02T08:44:18.644Z,66.37
2022-08-02T08:45:18.654Z,66.07
2022-08-02T08:46:18.640Z,66.07
2022-08-02T08:47:18.644Z,65.87
2022-08-02T08:48:25.758Z,65.87
2022-08-02T08:49:19.652Z,65.47
2022-08-02T08:50:24.089Z,65.54
2022-08-02T08:51:19.577Z,65.64
2022-08-02T08:52:18.574Z,65.94
2022-08-02T08:53:18.570Z,65.84
2022-08-02T08:54:18.606Z,65.74
2022-08-02T08:55:18.522Z,65.71
2022-08-02T08:56:18.518Z,65.51
2022-08-02T08:57:18.486Z,65.81
2022-08-02T08:58:18.495Z,65.91
2022-08-02T08:59:18.509Z,65.01
2022-08-02T09:00:18.542Z,65.11
2022-08-02T09:01:18.513Z,65.41
2022-08-02T09:02:21.405Z,65.71
2022-08-02T09:03:19.444Z,65.51
2022-08-02T09:04:18.461Z,65.31
2022-08-02T09:05:18.414Z,65.31
2022-08-02T09:06:18.393Z,65.48
2022-08-02T09:07:18.396Z,64.39
2022-08-02T09:08:18.385Z,64.39
2022-08-02T09:09:18.371Z,64.58
2022-08-02T09:10:18.478Z,64.58
2022-08-02T09:11:18.361Z,64.88
2022-08-02T09:12:18.391Z,64.98
2022-08-02T09:13:38.390Z,64.78
2022-08-02T09:14:19.420Z,64.48
2022-08-02T09:15:18.326Z,64.39
2022-08-02T09:16:18.287Z,64.28
2022-08-02T09:17:18.293Z,64.18
2022-08-02T09:18:18.266Z,64.39
2022-08-02T09:19:18.256Z,64.65
2022-08-02T09:20:18.292Z,64.95
2022-08-02T09:21:18.230Z,64.85
2022-08-02T09:22:18.237Z,63.66
2022-08-02T09:23:18.230Z,63.36
2022-08-02T09:24:18.218Z,62.96
2022-08-02T09:25:18.204Z,63.56
2022-08-02T09:26:18.204Z,64.06
2022-08-02T09:27:18.198Z,63.16
2022-08-02T09:28:18.162Z,63.36
2022-08-02T09:29:18.160Z,63.36
2022-08-02T09:30:18.147Z,63.66
2022-08-02T09:31:18.145Z,63.63
2022-08-02T09:32:18.122Z,63.82
2022-08-02T09:33:18.161Z,64.03
2022-08-02T09:34:19.705Z,63.43
2022-08-02T09:35:18.078Z,63.43
2022-08-02T09:36:18.082Z,63.40
2022-08-02T09:37:18.089Z,63.40
2022-08-02T09:38:18.066Z,63.20
2022-08-02T09:39:18.074Z,63.79
2022-08-02T09:40:18.047Z,63.00
2022-08-02T09:41:18.263Z,62.87
2022-08-02T09:42:18.006Z,62.37
2022-08-02T09:43:17.998Z,62.07
2022-08-02T09:44:17.994Z,62.27
2022-08-02T09:45:18.017Z,62.67
2022-08-02T09:46:17.969Z,62.47
2022-08-02T09:47:18.959Z,62.07
2022-08-02T09:48:17.949Z,62.27
2022-08-02T09:49:18.081Z,62.15
2022-08-02T09:50:18.005Z,61.65
2022-08-02T09:51:17.899Z,61.65
2022-08-02T09:52:17.923Z,61.65
2022-08-02T09:53:17.881Z,62.02
2022-08-02T09:54:17.872Z,62.02
2022-08-02T09:55:17.891Z,61.52
2022-08-02T09:56:30.190Z,61.42
2022-08-02T09:57:18.846Z,61.32
2022-08-02T09:58:17.839Z,61.19
2022-08-02T09:59:18.462Z,61.19
2022-08-02T10:00:27.034Z,61.59
2022-08-02T10:01:18.810Z,60.80
2022-08-02T10:02:22.845Z,60.10
2022-08-02T10:03:21.951Z,59.70
2022-08-02T10:04:21.741Z,60.50
2022-08-02T10:05:17.754Z,60.99
2022-08-02T10:06:17.772Z,61.49
2022-08-02T10:07:17.746Z,60.77
2022-08-02T10:08:17.742Z,59.31
2022-08-02T10:09:17.729Z,60.10
2022-08-02T10:10:17.741Z,59.80
2022-08-02T10:11:17.721Z,59.80
2022-08-02T10:12:17.680Z,59.91
2022-08-02T10:13:20.204Z,60.60
2022-08-02T10:14:17.648Z,60.50
2022-08-02T10:15:17.638Z,61.29
2022-08-02T10:16:17.668Z,61.07
2022-08-02T10:17:17.682Z,60.17
2022-08-02T10:18:37.086Z,59.88
2022-08-02T10:19:18.610Z,60.27
2022-08-02T10:20:18.594Z,59.48
2022-08-02T10:21:17.570Z,59.08
2022-08-02T10:22:19.750Z,59.21
2022-08-02T10:23:17.581Z,59.91
2022-08-02T10:24:17.551Z,60.40
2022-08-02T10:25:17.531Z,60.00
2022-08-02T10:26:17.532Z,60.00
2022-08-02T10:27:17.513Z,60.10
2022-08-02T10:28:17.578Z,59.70
2022-08-02T10:29:17.515Z,59.21
2022-08-02T10:30:17.483Z,59.28
2022-08-02T10:31:17.471Z,58.59
2022-08-02T10:32:17.484Z,58.46
2022-08-02T10:33:17.444Z,57.97
2022-08-02T10:34:17.474Z,57.44
2022-08-02T10:35:20.073Z,57.24
2022-08-02T10:36:18.418Z,56.95
2022-08-02T10:37:17.438Z,56.82
2022-08-02T10:38:17.406Z,55.63
2022-08-02T10:39:17.396Z,55.53
2022-08-02T10:40:17.372Z,55.41
2022-08-02T10:41:17.385Z,56.69
2022-08-02T10:42:17.347Z,56.89
2022-08-02T10:43:17.368Z,56.79
2022-08-02T10:44:24.783Z,54.91
2022-08-02T10:45:18.326Z,55.41
2022-08-02T10:46:17.354Z,55.30
2022-08-02T10:47:17.319Z,55.41
2022-08-02T10:48:17.318Z,55.60
2022-08-02T10:49:39.164Z,55.51
2022-08-02T10:50:18.295Z,55.33
2022-08-02T10:51:17.262Z,55.24
2022-08-02T10:52:18.272Z,55.63
2022-08-02T10:53:17.232Z,56.13
2022-08-02T10:54:17.223Z,56.23
2022-08-02T10:55:22.377Z,55.24
2022-08-02T10:56:18.205Z,55.73
2022-08-02T10:57:17.193Z,55.33
2022-08-02T10:58:17.193Z,54.84
2022-08-02T10:59:17.211Z,54.94
2022-08-02T11:00:17.337Z,54.84
2022-08-02T11:01:17.218Z,55.43
2022-08-02T11:02:17.510Z,55.43
2022-08-02T11:03:17.186Z,55.13
2022-08-02T11:04:17.113Z,55.53
2022-08-02T11:05:17.096Z,55.04
2022-08-02T11:06:25.674Z,54.84
2022-08-02T11:07:18.091Z,54.81
2022-08-02T11:08:17.069Z,54.61
2022-08-02T11:09:17.106Z,54.39
2022-08-02T11:10:17.059Z,53.89
2022-08-02T11:11:17.036Z,54.27
2022-08-02T11:12:17.044Z,54.27
2022-08-02T11:13:18.982Z,54.66
2022-08-02T11:14:17.017Z,54.44
2022-08-02T11:15:17.041Z,53.85
2022-08-02T11:16:16.991Z,53.55
2022-08-02T11:17:16.968Z,54.04
2022-08-02T11:18:16.965Z,53.85
2022-08-02T11:19:16.982Z,53.75
2022-08-02T11:20:16.959Z,52.66
2022-08-02T11:21:16.927Z,52.56
2022-08-02T11:22:16.933Z,52.46
2022-08-02T11:23:17.871Z,53.05
2022-08-02T11:24:16.898Z,53.15
2022-08-02T11:25:16.915Z,52.26
2022-08-02T11:26:16.874Z,52.06
2022-08-02T11:27:16.876Z,52.66
2022-08-02T11:28:20.719Z,51.87
2022-08-02T11:29:17.866Z,51.37
2022-08-02T11:30:16.849Z,52.66
2022-08-02T11:31:16.859Z,51.18
2022-08-02T11:32:16.820Z,52.58
2022-08-02T11:33:17.749Z,52.29
2022-08-02T11:34:37.382Z,52.69
2022-08-02T11:35:17.779Z,52.78
2022-08-02T11:36:16.780Z,52.78
2022-08-02T11:37:16.780Z,53.08
2022-08-02T11:38:16.771Z,52.78
2022-08-02T11:39:16.761Z,52.69
2022-08-02T11:40:19.810Z,53.28
2022-08-02T11:41:16.734Z,53.28
2022-08-02T11:42:17.715Z,53.08
2022-08-02T11:43:17.663Z,53.18
2022-08-02T11:44:16.691Z,52.48
2022-08-02T11:45:21.439Z,52.09
2022-08-02T11:46:17.664Z,51.87
2022-08-02T11:47:16.654Z,52.76
2022-08-02T11:48:16.646Z,53.25
2022-08-02T11:49:16.873Z,53.42
2022-08-02T11:50:16.639Z,52.14
2022-08-02T11:51:16.617Z,51.54
2022-08-02T11:52:16.733Z,51.94
2022-08-02T11:53:16.583Z,50.76
2022-08-02T11:54:16.576Z,50.85
2022-08-02T11:55:16.593Z,50.34
2022-08-02T11:56:21.744Z,50.63
2022-08-02T11:57:20.059Z,50.54
2022-08-02T11:58:16.541Z,51.42
2022-08-02T11:59:16.521Z,51.05
2022-08-02T12:00:16.549Z,51.35
2022-08-02T12:01:16.512Z,51.23
2022-08-02T12:02:16.524Z,50.93
2022-08-02T12:03:19.762Z,50.83
2022-08-02T12:04:16.491Z,50.24
2022-08-02T12:05:16.491Z,49.05
2022-08-02T12:06:16.979Z,49.67
2022-08-02T12:07:16.446Z,49.48
2022-08-02T12:08:19.280Z,49.67
2022-08-02T12:09:18.923Z,49.67
2022-08-02T12:10:18.635Z,50.19
2022-08-02T12:11:16.397Z,50.68
2022-08-02T12:12:16.389Z,51.15
2022-08-02T12:13:16.384Z,51.45
2022-08-02T12:14:16.369Z,51.05
2022-08-02T12:15:16.397Z,51.05
2022-08-02T12:16:16.344Z,50.48
2022-08-02T12:17:16.363Z,50.29
2022-08-02T12:18:16.317Z,50.78
2022-08-02T12:19:16.307Z,51.28
2022-08-02T12:20:16.311Z,51.57
2022-08-02T12:21:16.314Z,51.77
2022-08-02T12:22:16.664Z,52.06
2022-08-02T12:23:16.279Z,51.07
2022-08-02T12:24:16.288Z,51.54
2022-08-02T12:25:16.281Z,51.45
2022-08-02T12:26:18.201Z,51.25
2022-08-02T12:27:16.230Z,51.05
2022-08-02T12:28:17.906Z,51.25
2022-08-02T12:29:16.244Z,51.45
2022-08-02T12:30:17.253Z,51.45
2022-08-02T12:31:17.196Z,50.14
2022-08-02T12:32:16.205Z,50.24
2022-08-02T12:33:16.174Z,49.45
2022-08-02T12:34:16.156Z,48.66
2022-08-02T12:35:25.997Z,48.96
2022-08-02T12:36:17.156Z,49.03
2022-08-02T12:37:16.127Z,49.33
2022-08-02T12:38:16.126Z,48.91
2022-08-02T12:39:16.096Z,48.91
2022-08-02T12:40:16.095Z,48.79
2022-08-02T12:41:31.244Z,47.97
2022-08-02T12:42:17.142Z,47.66
2022-08-02T12:43:16.060Z,47.63
2022-08-02T12:44:16.050Z,46.75
2022-08-02T12:45:16.037Z,47.12
2022-08-02T12:46:16.028Z,47.12
2022-08-02T12:47:16.053Z,46.92
2022-08-02T12:48:16.014Z,47.19
2022-08-02T12:49:18.343Z,46.31
2022-08-02T12:50:15.981Z,46.50
2022-08-02T12:51:15.980Z,45.99
2022-08-02T12:52:16.349Z,46.01